Time;durP1;ratioP1;P1;durP2;ratioP2;P2;SDS_P1;SDS_P2;PMS_P1;PMS_P2;Temp;Humidity;BMP_temperature;BMP_pressure;BME280_temperature;BME280_humidity;BME280_pressure;Samples;Min_cycle;Max_cycle;Signal;HPM_P1;HPM_P2
2023/11/26 00:01:32;;;;;;;5.82;2.70;;;2.30;99.90;;;;;;494019;241;27623;-72
2023/11/26 00:03:33;;;;;;;2.78;2.58;;;2.30;99.90;;;;;;494055;241;27512;-73
2023/11/26 00:05:35;;;;;;;3.25;2.65;;;2.30;99.90;;;;;;494022;241;27509;-72
2023/11/26 00:07:36;;;;;;;5.55;2.80;;;2.20;99.90;;;;;;494060;241;27461;-72
2023/11/26 00:09:37;;;;;;;3.00;2.70;;;2.20;99.90;;;;;;494052;241;27587;-71
2023/11/26 00:11:38;;;;;;;4.30;2.60;;;2.30;99.90;;;;;;494002;241;27526;-72
2023/11/26 00:13:40;;;;;;;3.03;2.15;;;2.30;99.90;;;;;;493973;241;27474;-72
2023/11/26 00:15:41;;;;;;;2.67;2.50;;;2.30;99.90;;;;;;493990;241;27589;-72
2023/11/26 00:17:43;;;;;;;2.80;2.20;;;2.30;99.90;;;;;;493994;241;27500;-72
2023/11/26 00:19:45;;;;;;;2.90;2.60;;;2.30;99.90;;;;;;493999;237;28058;-71
2023/11/26 00:21:45;;;;;;;3.20;2.10;;;2.30;99.90;;;;;;493901;241;27997;-73
2023/11/26 00:23:46;;;;;;;4.20;2.60;;;2.30;99.90;;;;;;493983;241;27920;-72
2023/11/26 00:25:47;;;;;;;3.55;2.70;;;2.30;99.90;;;;;;493986;241;27584;-72
2023/11/26 00:27:48;;;;;;;4.37;2.60;;;2.30;99.90;;;;;;493970;241;27513;-72
2023/11/26 00:29:50;;;;;;;6.18;2.95;;;2.20;99.90;;;;;;493981;241;27480;-72
2023/11/26 00:31:52;;;;;;;9.85;3.25;;;2.20;99.90;;;;;;494009;241;27599;-72
2023/11/26 00:33:53;;;;;;;6.70;2.80;;;2.20;99.90;;;;;;493949;241;27469;-72
2023/11/26 00:35:53;;;;;;;3.47;3.03;;;2.20;99.90;;;;;;493984;241;27505;-72
2023/11/26 00:37:55;;;;;;;2.90;2.70;;;2.10;99.90;;;;;;493854;241;27857;-73
2023/11/26 00:39:57;;;;;;;2.50;2.30;;;2.20;99.90;;;;;;494004;241;27581;-72
2023/11/26 00:41:57;;;;;;;3.80;2.90;;;2.10;99.90;;;;;;493925;241;27595;-72
2023/11/26 00:43:58;;;;;;;3.58;2.70;;;2.10;99.90;;;;;;494081;241;27466;-72
2023/11/26 00:46:00;;;;;;;3.45;2.67;;;2.00;99.90;;;;;;494100;241;27923;-72
2023/11/26 00:48:01;;;;;;;3.53;2.65;;;2.00;99.90;;;;;;494031;241;28050;-72
2023/11/26 00:50:03;;;;;;;5.68;2.90;;;2.00;99.90;;;;;;494039;241;28034;-72
2023/11/26 00:52:04;;;;;;;3.83;2.37;;;2.00;99.90;;;;;;493981;241;28088;-72
2023/11/26 00:54:05;;;;;;;6.07;2.70;;;2.00;99.90;;;;;;493997;241;27948;-72
2023/11/26 00:56:06;;;;;;;5.35;2.65;;;1.90;99.90;;;;;;494054;241;27556;-72
2023/11/26 00:58:07;;;;;;;5.20;3.17;;;2.00;99.90;;;;;;494001;241;27516;-72
2023/11/26 01:00:12;;;;;;;6.18;2.75;;;2.00;99.90;;;;;;494028;241;27457;-72
2023/11/26 01:02:10;;;;;;;6.60;3.05;;;2.00;99.90;;;;;;493745;241;27545;-72
2023/11/26 01:04:11;;;;;;;3.78;2.80;;;1.90;99.90;;;;;;494018;241;27848;-72
2023/11/26 01:06:13;;;;;;;2.78;2.55;;;1.90;99.90;;;;;;494117;241;27490;-72
2023/11/26 01:08:14;;;;;;;3.47;2.58;;;1.80;99.90;;;;;;493990;241;27501;-73
2023/11/26 01:10:15;;;;;;;2.85;2.30;;;1.80;99.90;;;;;;493988;241;27442;-72
2023/11/26 01:12:16;;;;;;;3.30;2.35;;;1.80;99.90;;;;;;493969;241;27505;-72
2023/11/26 01:14:17;;;;;;;4.68;2.72;;;1.70;99.90;;;;;;494016;241;28085;-73
2023/11/26 01:16:19;;;;;;;4.03;2.80;;;1.70;99.90;;;;;;494011;241;27950;-72
2023/11/26 01:18:20;;;;;;;2.90;2.70;;;1.70;99.90;;;;;;494007;241;27976;-72
2023/11/26 01:20:21;;;;;;;4.37;2.70;;;1.70;99.90;;;;;;494024;241;28009;-72
2023/11/26 01:22:24;;;;;;;2.60;2.40;;;1.70;99.90;;;;;;494004;241;27501;-72
2023/11/26 01:24:23;;;;;;;2.53;2.33;;;1.60;99.90;;;;;;493947;241;27513;-73
2023/11/26 01:26:25;;;;;;;3.37;2.47;;;1.60;99.90;;;;;;493986;241;27463;-72
2023/11/26 01:28:26;;;;;;;4.20;2.35;;;1.60;99.90;;;;;;493948;241;27591;-72
2023/11/26 01:30:27;;;;;;;2.20;2.00;;;1.60;99.90;;;;;;493985;241;27601;-72
2023/11/26 01:32:31;;;;;;;2.58;2.40;;;1.60;99.90;;;;;;493995;241;27485;-72
2023/11/26 01:34:30;;;;;;;2.75;2.33;;;1.60;99.90;;;;;;493898;241;27560;-72
2023/11/26 01:36:31;;;;;;;2.40;2.30;;;1.70;99.90;;;;;;493987;241;27470;-72
2023/11/26 01:38:32;;;;;;;2.60;2.40;;;1.70;99.90;;;;;;493998;241;27511;-72
2023/11/26 01:40:33;;;;;;;2.70;2.50;;;1.70;99.90;;;;;;494007;241;27526;-73
2023/11/26 01:42:35;;;;;;;7.37;2.85;;;1.70;99.90;;;;;;494009;241;27906;-72
2023/11/26 01:44:36;;;;;;;2.47;2.28;;;1.60;99.90;;;;;;493993;241;28040;-72
2023/11/26 01:46:37;;;;;;;3.12;2.92;;;1.60;99.90;;;;;;493722;241;27998;-72
2023/11/26 01:48:39;;;;;;;2.90;2.58;;;1.60;99.90;;;;;;493307;241;27546;-71
2023/11/26 01:50:40;;;;;;;2.58;2.37;;;1.60;99.90;;;;;;493183;241;27545;-72
2023/11/26 01:52:41;;;;;;;2.40;2.20;;;1.60;99.90;;;;;;493410;241;27492;-72
2023/11/26 01:54:42;;;;;;;2.72;2.53;;;1.50;99.90;;;;;;493716;241;27962;-72
2023/11/26 01:56:44;;;;;;;3.10;2.80;;;1.60;99.90;;;;;;494074;241;28197;-73
2023/11/26 01:58:45;;;;;;;3.28;2.20;;;1.60;99.90;;;;;;494057;241;27988;-72
2023/11/26 02:00:46;;;;;;;2.22;2.05;;;1.60;99.90;;;;;;494070;241;28071;-72
2023/11/26 02:02:47;;;;;;;3.45;2.70;;;1.60;99.90;;;;;;494076;241;27490;-72
2023/11/26 02:04:49;;;;;;;2.22;2.00;;;1.60;99.90;;;;;;493983;241;27592;-72
2023/11/26 02:06:50;;;;;;;2.92;2.53;;;1.50;99.90;;;;;;494119;241;27596;-74
2023/11/26 02:08:51;;;;;;;2.65;2.25;;;1.50;99.90;;;;;;494085;241;27549;-72
2023/11/26 02:10:52;;;;;;;4.20;2.35;;;1.50;99.90;;;;;;494099;241;27590;-72
2023/11/26 02:12:54;;;;;;;2.33;2.22;;;1.50;99.90;;;;;;494065;241;27608;-72
2023/11/26 02:14:55;;;;;;;2.08;1.98;;;1.50;99.90;;;;;;494105;241;27504;-72
2023/11/26 02:16:56;;;;;;;2.87;2.65;;;1.50;99.90;;;;;;494089;241;27547;-73
2023/11/26 02:18:57;;;;;;;3.22;2.40;;;1.60;99.90;;;;;;494086;241;27469;-72
2023/11/26 02:20:59;;;;;;;2.22;2.10;;;1.50;99.90;;;;;;493997;241;27505;-73
2023/11/26 02:23:00;;;;;;;2.90;2.25;;;1.50;99.90;;;;;;493985;241;28686;-72
2023/11/26 02:25:01;;;;;;;2.37;2.20;;;1.60;99.90;;;;;;494097;241;27926;-72
2023/11/26 02:27:02;;;;;;;2.28;2.17;;;1.50;99.90;;;;;;494075;241;27991;-72
2023/11/26 02:29:04;;;;;;;1.90;1.80;;;1.50;99.90;;;;;;493989;241;28091;-72
2023/11/26 02:31:05;;;;;;;2.22;2.10;;;1.60;99.90;;;;;;493972;241;27604;-73
2023/11/26 02:33:07;;;;;;;2.75;2.30;;;1.60;99.90;;;;;;494007;239;27521;-72
2023/11/26 02:35:07;;;;;;;2.70;2.10;;;1.60;99.90;;;;;;493993;241;27473;-72
2023/11/26 02:37:09;;;;;;;2.53;2.33;;;1.60;99.90;;;;;;493989;241;27500;-72
2023/11/26 02:39:10;;;;;;;2.50;2.00;;;1.60;99.90;;;;;;493997;241;27470;-72
2023/11/26 02:41:11;;;;;;;2.35;2.15;;;1.60;99.90;;;;;;494057;237;27540;-72
2023/11/26 02:43:13;;;;;;;2.33;2.22;;;1.50;99.90;;;;;;494078;241;27967;-74
2023/11/26 02:45:14;;;;;;;2.83;2.25;;;1.60;99.90;;;;;;494064;241;27516;-72
2023/11/26 02:47:15;;;;;;;2.30;2.10;;;1.60;99.90;;;;;;493955;241;27548;-73
2023/11/26 02:49:16;;;;;;;2.37;2.17;;;1.60;99.90;;;;;;493970;241;27465;-71
2023/11/26 02:51:17;;;;;;;3.72;2.03;;;1.60;99.90;;;;;;493998;241;27504;-72
2023/11/26 02:53:19;;;;;;;8.88;3.30;;;1.60;99.90;;;;;;494048;241;27500;-73
2023/11/26 02:55:20;;;;;;;2.60;2.40;;;1.60;99.90;;;;;;494066;241;27584;-72
2023/11/26 02:57:21;;;;;;;2.85;2.55;;;1.50;99.90;;;;;;494094;241;27637;-72
2023/11/26 02:59:22;;;;;;;7.50;2.78;;;1.60;99.90;;;;;;494048;241;27490;-72
2023/11/26 03:01:28;;;;;;;5.00;2.97;;;1.60;99.90;;;;;;494000;241;27621;-72
2023/11/26 03:03:25;;;;;;;3.90;2.80;;;1.60;99.90;;;;;;493607;241;27635;-72
2023/11/26 03:05:26;;;;;;;6.82;3.70;;;1.60;99.90;;;;;;493985;241;28861;-72
2023/11/26 03:07:27;;;;;;;7.07;4.07;;;1.60;99.90;;;;;;493974;241;28735;-72
2023/11/26 03:13:56;;;;;;;4.40;3.25;;;1.70;99.90;;;;;;493989;237;27508;-72
2023/11/26 03:15:57;;;;;;;3.80;2.87;;;1.70;99.90;;;;;;493995;241;27587;-73
2023/11/26 03:17:58;;;;;;;5.87;3.20;;;1.70;99.90;;;;;;493988;241;27552;-72
2023/11/26 03:20:00;;;;;;;6.95;4.57;;;1.70;99.90;;;;;;493997;241;27578;-73
2023/11/26 03:22:07;;;;;;;4.95;3.70;;;1.70;99.90;;;;;;493936;241;27520;-72
2023/11/26 03:24:04;;;;;;;8.48;3.30;;;1.70;99.90;;;;;;493459;241;27549;-71
2023/11/26 03:26:03;;;;;;;5.35;3.05;;;1.70;99.90;;;;;;493958;241;27544;-72
2023/11/26 03:28:08;;;;;;;4.60;2.92;;;1.80;99.90;;;;;;494114;241;27633;-72
2023/11/26 03:30:09;;;;;;;7.12;3.30;;;1.80;99.90;;;;;;494054;241;27470;-71
2023/11/26 03:32:10;;;;;;;4.22;2.90;;;1.80;99.90;;;;;;493960;241;27511;-72
2023/11/26 03:34:12;;;;;;;3.58;3.20;;;1.80;99.90;;;;;;494009;241;27506;-73
2023/11/26 03:36:12;;;;;;;3.85;3.33;;;1.80;99.90;;;;;;493963;241;27645;-72
2023/11/26 03:38:13;;;;;;;3.95;3.22;;;1.80;99.90;;;;;;493975;241;27977;-72
2023/11/26 03:40:15;;;;;;;6.15;3.10;;;1.80;99.90;;;;;;493967;241;27951;-72
2023/11/26 03:42:16;;;;;;;5.93;3.00;;;1.80;99.90;;;;;;493963;241;27963;-72
2023/11/26 03:44:17;;;;;;;9.00;3.83;;;1.80;99.90;;;;;;494050;241;28181;-74
2023/11/26 03:46:18;;;;;;;3.87;3.55;;;1.80;99.90;;;;;;494119;241;27549;-72
2023/11/26 03:48:20;;;;;;;4.97;3.80;;;1.80;99.90;;;;;;493987;241;27499;-72
2023/11/26 03:50:22;;;;;;;6.75;3.90;;;1.80;99.90;;;;;;493985;241;27523;-72
2023/11/26 03:52:23;;;;;;;4.60;4.03;;;1.80;99.90;;;;;;493990;241;27564;-74
2023/11/26 03:54:24;;;;;;;6.05;3.60;;;1.80;99.90;;;;;;493959;241;27517;-72
2023/11/26 03:56:25;;;;;;;3.97;3.58;;;1.80;99.90;;;;;;493988;241;27472;-71
2023/11/26 03:58:26;;;;;;;5.12;3.75;;;1.80;99.90;;;;;;493947;241;27595;-72
2023/11/26 04:00:27;;;;;;;7.22;3.70;;;1.80;99.90;;;;;;493669;241;27609;-72
2023/11/26 04:02:28;;;;;;;5.30;4.10;;;1.80;99.90;;;;;;494014;241;27548;-72
2023/11/26 04:04:30;;;;;;;8.15;4.32;;;1.80;99.90;;;;;;494011;241;27581;-72
2023/11/26 04:06:31;;;;;;;9.43;4.50;;;1.80;99.90;;;;;;494008;241;28041;-72
2023/11/26 04:08:32;;;;;;;6.78;4.18;;;1.80;99.90;;;;;;493976;241;27973;-72
2023/11/26 04:10:33;;;;;;;8.52;5.10;;;1.80;99.90;;;;;;494026;241;28089;-73
2023/11/26 04:12:35;;;;;;;8.27;4.62;;;1.80;99.90;;;;;;494054;241;27943;-72
2023/11/26 04:14:36;;;;;;;7.32;4.78;;;1.80;99.90;;;;;;493953;241;27507;-74
2023/11/26 04:16:37;;;;;;;6.87;4.43;;;1.70;99.90;;;;;;494000;241;27486;-72
2023/11/26 04:18:39;;;;;;;6.60;3.72;;;1.70;99.90;;;;;;493966;241;27542;-72
2023/11/26 04:20:40;;;;;;;16.15;5.35;;;1.70;99.90;;;;;;494109;241;27520;-74
2023/11/26 04:22:41;;;;;;;9.13;5.90;;;1.70;99.90;;;;;;494049;241;27462;-72
2023/11/26 04:24:42;;;;;;;8.73;5.28;;;1.60;99.90;;;;;;494016;241;27521;-72
2023/11/26 04:26:43;;;;;;;6.00;5.07;;;1.60;99.90;;;;;;494077;241;27521;-72
2023/11/26 04:28:45;;;;;;;13.45;6.82;;;1.60;99.90;;;;;;493980;241;27556;-72
2023/11/26 04:30:46;;;;;;;9.80;5.68;;;1.60;99.90;;;;;;494006;241;27533;-73
2023/11/26 04:32:47;;;;;;;7.22;4.90;;;1.50;99.90;;;;;;493997;241;27926;-72
2023/11/26 04:34:48;;;;;;;9.85;5.40;;;1.50;99.90;;;;;;493985;241;27988;-72
2023/11/26 04:36:50;;;;;;;9.82;5.68;;;1.50;99.90;;;;;;493996;241;28698;-71
2023/11/26 04:38:51;;;;;;;6.25;5.20;;;1.50;99.90;;;;;;494101;241;27914;-72
2023/11/26 04:40:52;;;;;;;8.25;5.20;;;1.60;99.90;;;;;;494099;241;27464;-73
2023/11/26 04:42:53;;;;;;;5.35;4.60;;;1.60;99.90;;;;;;494051;241;27544;-72
2023/11/26 04:44:55;;;;;;;10.57;5.20;;;1.70;99.90;;;;;;494010;241;27515;-72
2023/11/26 04:46:56;;;;;;;8.80;6.12;;;1.70;99.90;;;;;;494098;241;27516;-74
2023/11/26 04:48:57;;;;;;;11.73;6.45;;;1.70;99.90;;;;;;494090;237;27470;-72
2023/11/26 04:50:58;;;;;;;10.88;6.10;;;1.80;99.90;;;;;;493977;241;27571;-72
2023/11/26 04:53:00;;;;;;;7.53;5.70;;;1.80;99.90;;;;;;493997;241;27461;-72
2023/11/26 04:55:01;;;;;;;13.18;6.97;;;1.80;99.90;;;;;;494114;241;27496;-72
2023/11/26 04:57:02;;;;;;;12.57;5.60;;;1.90;99.90;;;;;;494120;241;27946;-73
2023/11/26 04:59:03;;;;;;;10.48;5.53;;;1.90;99.90;;;;;;493996;241;28046;-72
2023/11/26 05:01:05;;;;;;;12.02;6.93;;;1.80;99.90;;;;;;493998;241;28112;-72
2023/11/26 05:03:06;;;;;;;9.77;5.40;;;1.80;99.90;;;;;;494079;241;27561;-72
2023/11/26 05:05:09;;;;;;;9.68;5.45;;;1.80;99.90;;;;;;494003;241;27517;-72
2023/11/26 05:07:08;;;;;;;6.60;5.07;;;1.90;99.90;;;;;;493928;241;27499;-72
2023/11/26 05:09:12;;;;;;;13.02;7.30;;;1.90;99.90;;;;;;494076;241;27564;-72
2023/11/26 05:11:14;;;;;;;11.23;6.30;;;1.90;99.90;;;;;;493995;241;27546;-73
2023/11/26 05:13:15;;;;;;;9.45;6.15;;;1.90;99.90;;;;;;493967;241;27586;-72
2023/11/26 05:15:16;;;;;;;5.90;5.15;;;1.90;99.90;;;;;;493997;241;27553;-72
2023/11/26 05:17:17;;;;;;;10.93;6.40;;;1.90;99.90;;;;;;494110;241;27462;-72
2023/11/26 05:19:19;;;;;;;10.07;5.78;;;1.90;99.90;;;;;;494116;241;27513;-73
2023/11/26 05:21:20;;;;;;;8.63;5.45;;;1.90;99.90;;;;;;493960;241;27921;-72
2023/11/26 05:23:21;;;;;;;12.00;6.20;;;1.90;99.90;;;;;;493971;241;28080;-72
2023/11/26 05:25:22;;;;;;;9.00;6.20;;;2.00;99.90;;;;;;494121;241;28100;-73
2023/11/26 05:27:24;;;;;;;7.80;5.82;;;2.00;99.90;;;;;;494077;241;27543;-74
2023/11/26 05:29:25;;;;;;;16.00;7.03;;;2.00;99.90;;;;;;493999;237;27514;-72
2023/11/26 05:31:26;;;;;;;14.10;5.93;;;2.00;99.90;;;;;;494046;237;27454;-72
2023/11/26 05:33:28;;;;;;;13.02;6.15;;;2.00;99.90;;;;;;493898;241;27625;-72
2023/11/26 05:35:29;;;;;;;12.98;6.00;;;1.90;99.90;;;;;;494023;241;27505;-73
2023/11/26 05:37:30;;;;;;;9.95;5.35;;;2.00;99.90;;;;;;494097;241;27926;-72
2023/11/26 05:39:31;;;;;;;13.52;6.25;;;2.00;99.90;;;;;;494060;241;27981;-73
2023/11/26 05:41:32;;;;;;;8.43;5.80;;;2.00;99.90;;;;;;494082;241;29031;-72
2023/11/26 05:43:34;;;;;;;10.85;5.97;;;1.90;99.90;;;;;;494061;241;27518;-72
2023/11/26 05:45:35;;;;;;;19.25;8.65;;;1.90;99.90;;;;;;494093;241;27477;-74
2023/11/26 05:47:36;;;;;;;8.40;5.80;;;1.90;99.90;;;;;;493983;241;27455;-72
2023/11/26 05:49:37;;;;;;;13.30;5.60;;;1.90;99.90;;;;;;493975;241;27512;-72
2023/11/26 05:51:39;;;;;;;8.25;5.90;;;1.90;99.90;;;;;;494012;237;27494;-72
2023/11/26 05:53:40;;;;;;;8.98;5.50;;;1.90;99.90;;;;;;494025;241;27568;-72
2023/11/26 05:55:41;;;;;;;7.05;5.45;;;1.80;99.90;;;;;;494001;237;27488;-72
2023/11/26 05:57:42;;;;;;;6.90;5.60;;;1.80;99.90;;;;;;493978;241;27473;-72
2023/11/26 05:59:44;;;;;;;10.60;6.10;;;1.90;99.90;;;;;;493997;241;27588;-72
2023/11/26 06:01:45;;;;;;;7.75;5.65;;;1.80;99.90;;;;;;493986;237;28145;-73
2023/11/26 06:03:46;;;;;;;9.52;5.43;;;1.80;99.90;;;;;;494087;241;27930;-72
2023/11/26 06:05:47;;;;;;;10.02;5.60;;;1.80;99.90;;;;;;494083;241;27972;-73
2023/11/26 06:07:49;;;;;;;14.13;8.27;;;1.80;99.90;;;;;;494076;241;27470;-72
2023/11/26 06:09:50;;;;;;;11.48;6.00;;;1.70;99.90;;;;;;494071;241;27520;-72
2023/11/26 06:11:51;;;;;;;7.53;5.43;;;1.70;99.90;;;;;;494019;241;27487;-75
2023/11/26 06:13:53;;;;;;;10.00;6.22;;;1.80;99.90;;;;;;493993;241;27466;-72
2023/11/26 06:15:54;;;;;;;9.05;5.60;;;1.80;99.90;;;;;;494050;241;27499;-72
2023/11/26 06:17:55;;;;;;;12.80;6.55;;;1.90;99.90;;;;;;494068;241;27529;-72
2023/11/26 06:19:56;;;;;;;8.38;5.35;;;1.90;99.90;;;;;;494077;241;27473;-72
2023/11/26 06:21:58;;;;;;;10.38;6.32;;;1.90;99.90;;;;;;494054;241;27497;-73
2023/11/26 06:23:59;;;;;;;9.48;6.55;;;1.90;99.90;;;;;;494085;241;27926;-71
2023/11/26 06:26:00;;;;;;;8.82;5.75;;;1.90;99.90;;;;;;494134;241;28083;-73
2023/11/26 06:28:01;;;;;;;11.30;5.95;;;1.90;99.90;;;;;;494101;241;29195;-72
2023/11/26 06:30:03;;;;;;;8.75;5.72;;;1.90;99.90;;;;;;494000;241;27922;-71
2023/11/26 06:32:04;;;;;;;11.18;6.18;;;1.90;99.90;;;;;;494015;241;27604;-72
2023/11/26 06:34:05;;;;;;;12.77;6.90;;;1.90;99.90;;;;;;493984;241;27562;-72
2023/11/26 06:36:06;;;;;;;15.32;6.65;;;1.90;99.90;;;;;;494000;241;27627;-73
2023/11/26 06:38:08;;;;;;;7.10;5.57;;;1.90;99.90;;;;;;494074;241;27607;-73
2023/11/26 06:40:09;;;;;;;10.60;5.97;;;1.90;99.90;;;;;;494088;241;27464;-72
2023/11/26 06:42:10;;;;;;;10.82;6.62;;;1.90;99.90;;;;;;493991;241;27593;-72
2023/11/26 06:44:11;;;;;;;9.48;5.55;;;1.90;99.90;;;;;;494051;241;27484;-72
2023/11/26 06:46:13;;;;;;;10.27;6.15;;;1.90;99.90;;;;;;494095;241;27982;-73
2023/11/26 06:48:14;;;;;;;8.75;5.03;;;1.80;99.90;;;;;;494087;237;28092;-73
2023/11/26 06:50:15;;;;;;;8.35;5.53;;;1.80;99.90;;;;;;494094;241;28039;-72
2023/11/26 06:52:16;;;;;;;12.98;5.72;;;1.80;99.90;;;;;;494079;241;27988;-72
2023/11/26 06:54:18;;;;;;;8.38;5.68;;;1.80;99.90;;;;;;494128;241;27497;-72
2023/11/26 06:56:19;;;;;;;12.98;6.95;;;1.80;99.90;;;;;;494137;241;27549;-72
2023/11/26 06:58:20;;;;;;;10.07;5.50;;;1.90;99.90;;;;;;493734;241;27597;-73
2023/11/26 07:00:21;;;;;;;6.65;5.53;;;1.90;99.90;;;;;;494115;241;27545;-72
2023/11/26 07:02:23;;;;;;;10.38;7.10;;;1.90;99.90;;;;;;494119;241;27533;-73
2023/11/26 07:04:24;;;;;;;7.35;5.82;;;1.90;99.90;;;;;;494093;241;27967;-73
2023/11/26 07:06:25;;;;;;;6.82;5.45;;;1.90;99.90;;;;;;494124;241;27478;-72
2023/11/26 07:08:30;;;;;;;12.23;6.10;;;1.90;99.90;;;;;;494056;241;27572;-73
2023/11/26 07:10:31;;;;;;;8.52;5.75;;;1.90;99.90;;;;;;494052;241;27505;-72
2023/11/26 07:12:32;;;;;;;9.07;5.60;;;1.90;99.90;;;;;;493957;241;27469;-72
2023/11/26 07:14:33;;;;;;;10.32;5.57;;;1.90;99.90;;;;;;494041;241;27470;-72
2023/11/26 07:16:34;;;;;;;7.82;6.20;;;1.90;99.90;;;;;;493996;241;27517;-73
2023/11/26 07:18:35;;;;;;;6.93;5.45;;;1.90;99.90;;;;;;494017;241;27468;-72
2023/11/26 07:20:37;;;;;;;7.20;5.18;;;1.90;99.90;;;;;;494020;241;27494;-72
2023/11/26 07:22:38;;;;;;;7.65;5.40;;;1.90;99.90;;;;;;494022;241;27500;-72
2023/11/26 07:24:39;;;;;;;6.07;5.15;;;1.90;99.90;;;;;;494007;241;27868;-72
2023/11/26 07:26:40;;;;;;;7.25;5.40;;;1.80;99.90;;;;;;494009;241;27982;-73
2023/11/26 07:28:42;;;;;;;7.47;5.12;;;1.80;99.90;;;;;;494091;241;27925;-72
2023/11/26 07:30:43;;;;;;;7.85;5.45;;;1.80;99.90;;;;;;494049;241;28108;-72
2023/11/26 07:32:44;;;;;;;9.63;6.20;;;1.90;99.90;;;;;;494119;241;27545;-73
2023/11/26 07:34:46;;;;;;;6.30;4.85;;;1.80;99.90;;;;;;494076;237;27548;-71
2023/11/26 07:36:47;;;;;;;7.22;5.90;;;1.90;99.90;;;;;;494003;241;27501;-72
2023/11/26 07:38:48;;;;;;;13.35;6.65;;;1.90;99.90;;;;;;494081;241;27458;-72
2023/11/26 07:40:50;;;;;;;9.80;6.18;;;1.90;99.90;;;;;;494067;241;27512;-72
2023/11/26 07:42:50;;;;;;;9.32;5.80;;;2.00;99.90;;;;;;493794;241;27548;-73
2023/11/26 07:44:52;;;;;;;9.52;6.10;;;2.00;99.90;;;;;;493987;241;27467;-72
2023/11/26 07:46:54;;;;;;;9.07;6.40;;;2.00;99.90;;;;;;493971;241;27620;-73
2023/11/26 07:48:55;;;;;;;10.32;6.03;;;2.10;99.90;;;;;;494046;241;27522;-72
2023/11/26 07:50:56;;;;;;;9.40;6.25;;;2.10;99.90;;;;;;494073;241;27473;-73
2023/11/26 07:52:57;;;;;;;10.07;6.90;;;2.10;99.90;;;;;;493744;241;27966;-74
2023/11/26 07:54:58;;;;;;;10.68;6.45;;;2.10;99.90;;;;;;493987;241;27916;-72
2023/11/26 07:56:59;;;;;;;6.87;5.53;;;2.10;99.90;;;;;;493972;241;28006;-72
2023/11/26 07:59:06;;;;;;;10.30;6.22;;;2.10;99.90;;;;;;493989;241;27501;-72
2023/11/26 08:01:05;;;;;;;14.40;7.80;;;2.20;99.90;;;;;;493572;241;27553;-72
2023/11/26 08:03:07;;;;;;;11.60;7.35;;;2.20;99.90;;;;;;493807;237;27569;-73
2023/11/26 08:05:08;;;;;;;9.65;6.87;;;2.30;99.90;;;;;;493992;241;27512;-74
2023/11/26 08:07:08;;;;;;;8.23;6.22;;;2.30;99.90;;;;;;493897;241;28028;-72
2023/11/26 08:09:10;;;;;;;12.10;7.30;;;2.30;99.90;;;;;;493930;241;27970;-72
2023/11/26 08:11:12;;;;;;;10.07;7.05;;;2.30;99.90;;;;;;494006;241;28101;-73
2023/11/26 08:13:12;;;;;;;8.40;6.90;;;2.30;99.90;;;;;;493948;241;27475;-72
2023/11/26 08:15:16;;;;;;;13.57;7.80;;;2.40;99.90;;;;;;494045;241;27539;-73
2023/11/26 08:17:18;;;;;;;11.35;6.87;;;2.40;99.90;;;;;;493856;241;27517;-72
2023/11/26 08:19:19;;;;;;;9.40;6.68;;;2.40;99.90;;;;;;494015;241;27478;-72
2023/11/26 08:21:22;;;;;;;11.40;6.50;;;2.50;99.90;;;;;;494070;241;27477;-72
2023/11/26 08:23:21;;;;;;;10.80;7.22;;;2.50;99.90;;;;;;493908;241;28049;-73
2023/11/26 08:25:29;;;;;;;14.50;7.10;;;2.60;99.90;;;;;;494089;241;27936;-72
2023/11/26 08:27:28;;;;;;;10.13;6.82;;;2.60;99.90;;;;;;493723;241;27471;-73
2023/11/26 08:29:28;;;;;;;9.07;6.15;;;2.70;99.90;;;;;;493874;241;27665;-73
2023/11/26 08:31:31;;;;;;;15.48;8.65;;;2.80;99.90;;;;;;493970;241;27574;-73
2023/11/26 08:33:36;;;;;;;11.95;7.68;;;2.90;99.90;;;;;;493818;241;27468;-72
2023/11/26 08:35:32;;;;;;;15.02;7.65;;;2.90;99.90;;;;;;493483;241;27997;-73
2023/11/26 08:37:33;;;;;;;15.95;8.55;;;2.90;99.90;;;;;;493947;241;27905;-72
2023/11/26 08:39:34;;;;;;;12.25;7.53;;;2.90;99.90;;;;;;493963;239;27989;-72
2023/11/26 08:41:36;;;;;;;10.05;6.40;;;2.80;99.90;;;;;;494011;241;27528;-73
2023/11/26 08:43:39;;;;;;;9.13;7.07;;;2.90;99.90;;;;;;493929;241;27493;-72
2023/11/26 08:45:38;;;;;;;20.08;9.30;;;2.90;99.90;;;;;;493780;241;27521;-72
2023/11/26 08:47:42;;;;;;;9.60;7.20;;;3.00;99.90;;;;;;493970;237;27480;-72
2023/11/26 08:49:41;;;;;;;8.38;7.00;;;3.00;99.90;;;;;;493782;241;27505;-72
2023/11/26 08:51:41;;;;;;;16.25;8.05;;;3.00;99.90;;;;;;494001;241;27523;-72
2023/11/26 08:53:43;;;;;;;12.95;7.50;;;3.10;99.90;;;;;;493988;241;27556;-72
2023/11/26 08:55:44;;;;;;;7.43;6.20;;;3.10;99.90;;;;;;493983;241;27591;-72
2023/11/26 08:57:45;;;;;;;15.93;8.10;;;3.10;99.90;;;;;;494075;241;28946;-72
2023/11/26 08:59:48;;;;;;;18.17;8.25;;;3.10;99.90;;;;;;494050;241;28064;-72
2023/11/26 09:01:48;;;;;;;9.82;7.47;;;3.00;99.90;;;;;;493846;241;29218;-72
2023/11/26 09:03:49;;;;;;;15.27;8.20;;;3.00;99.90;;;;;;493980;241;27542;-72
2023/11/26 09:05:50;;;;;;;10.43;8.10;;;3.00;99.90;;;;;;493941;241;27599;-73
2023/11/26 09:07:52;;;;;;;13.73;8.00;;;2.90;99.90;;;;;;494053;241;27564;-72
2023/11/26 09:09:53;;;;;;;14.57;7.70;;;2.90;99.90;;;;;;494115;241;27469;-72
2023/11/26 09:11:54;;;;;;;12.23;7.68;;;2.90;99.90;;;;;;494123;241;27597;-73
2023/11/26 09:13:57;;;;;;;14.80;9.32;;;2.90;99.90;;;;;;494078;241;27545;-72
2023/11/26 09:15:57;;;;;;;10.77;7.93;;;2.90;99.90;;;;;;493910;241;27522;-72
2023/11/26 09:17:58;;;;;;;12.37;8.57;;;3.00;99.90;;;;;;494070;241;27992;-73
2023/11/26 09:19:59;;;;;;;13.35;8.15;;;3.00;99.90;;;;;;494061;241;27519;-72
2023/11/26 09:22:02;;;;;;;13.85;8.57;;;3.00;99.90;;;;;;494121;241;27514;-74
2023/11/26 09:24:02;;;;;;;9.25;6.47;;;3.00;99.90;;;;;;493916;241;27480;-72
2023/11/26 09:26:04;;;;;;;11.50;8.15;;;3.10;99.90;;;;;;494094;241;27570;-72
2023/11/26 09:28:05;;;;;;;11.80;7.35;;;3.10;99.90;;;;;;493938;241;27501;-72
2023/11/26 09:30:05;;;;;;;11.45;7.87;;;3.10;99.90;;;;;;493968;241;27973;-72
2023/11/26 09:32:07;;;;;;;14.07;7.57;;;3.10;99.90;;;;;;494013;241;27997;-72
2023/11/26 09:34:08;;;;;;;15.35;7.32;;;3.20;99.90;;;;;;494078;241;28284;-73
2023/11/26 09:36:09;;;;;;;11.10;6.18;;;3.20;99.90;;;;;;493975;241;27565;-72
2023/11/26 09:38:10;;;;;;;12.55;7.07;;;3.20;99.90;;;;;;494029;241;27513;-72
2023/11/26 09:40:12;;;;;;;14.73;8.27;;;3.20;99.90;;;;;;493992;241;27453;-72
2023/11/26 09:42:13;;;;;;;12.23;7.25;;;3.30;99.90;;;;;;493999;241;27492;-72
2023/11/26 09:44:14;;;;;;;12.32;7.32;;;3.30;99.90;;;;;;494085;237;27513;-72
2023/11/26 09:46:15;;;;;;;9.30;6.72;;;3.30;99.90;;;;;;493975;237;27625;-72
2023/11/26 09:48:17;;;;;;;10.60;7.50;;;3.30;99.90;;;;;;493992;241;27529;-72
2023/11/26 09:50:18;;;;;;;11.75;8.15;;;3.40;99.90;;;;;;493977;241;27955;-72
2023/11/26 09:52:19;;;;;;;17.48;8.02;;;3.40;99.90;;;;;;494016;241;28017;-72
2023/11/26 09:54:22;;;;;;;9.32;7.30;;;3.50;99.90;;;;;;493985;241;28034;-73
2023/11/26 09:56:22;;;;;;;10.02;7.03;;;3.50;99.90;;;;;;493850;241;27474;-72
2023/11/26 09:58:23;;;;;;;9.48;6.78;;;3.50;99.90;;;;;;493982;241;27498;-72
2023/11/26 10:00:25;;;;;;;12.25;7.80;;;3.50;99.90;;;;;;493969;241;27510;-72
2023/11/26 10:02:25;;;;;;;11.52;7.97;;;3.50;99.90;;;;;;493980;241;27622;-72
2023/11/26 10:04:27;;;;;;;8.82;7.00;;;3.50;99.90;;;;;;494008;241;27507;-72
2023/11/26 10:06:28;;;;;;;11.27;7.20;;;3.50;99.90;;;;;;493999;241;27493;-72
2023/11/26 10:08:30;;;;;;;7.12;5.97;;;3.50;99.90;;;;;;493971;241;28088;-72
2023/11/26 10:10:30;;;;;;;11.90;7.37;;;3.60;99.90;;;;;;493960;241;28051;-74
2023/11/26 10:12:32;;;;;;;9.23;6.50;;;3.60;99.90;;;;;;493934;241;29044;-72
2023/11/26 10:14:33;;;;;;;11.07;7.22;;;3.50;99.90;;;;;;494039;241;27607;-72
2023/11/26 10:16:35;;;;;;;11.80;7.80;;;3.60;99.90;;;;;;493948;241;27465;-72
2023/11/26 10:18:36;;;;;;;11.43;7.80;;;3.60;99.90;;;;;;493939;241;27595;-72
2023/11/26 10:20:38;;;;;;;19.73;8.30;;;3.60;99.90;;;;;;494068;237;27533;-73
2023/11/26 10:22:38;;;;;;;15.55;7.93;;;3.60;99.90;;;;;;494000;241;27489;-72
2023/11/26 10:24:39;;;;;;;16.17;8.60;;;3.70;99.90;;;;;;494111;241;27593;-71
2023/11/26 10:26:41;;;;;;;19.08;9.05;;;3.60;99.90;;;;;;494055;241;27481;-74
2023/11/26 10:28:42;;;;;;;9.77;7.15;;;3.60;99.90;;;;;;494114;241;27931;-72
2023/11/26 10:30:43;;;;;;;10.65;7.45;;;3.60;99.90;;;;;;493997;241;28070;-73
2023/11/26 10:32:44;;;;;;;21.60;8.98;;;3.60;99.90;;;;;;493999;237;27562;-72
2023/11/26 10:34:45;;;;;;;16.98;8.50;;;3.60;99.90;;;;;;494006;241;27499;-72
2023/11/26 10:36:47;;;;;;;17.20;8.70;;;3.70;99.90;;;;;;493972;241;27504;-72
2023/11/26 10:38:48;;;;;;;15.02;7.60;;;3.70;99.90;;;;;;494059;241;27452;-72
2023/11/26 10:40:49;;;;;;;13.35;8.60;;;3.70;99.90;;;;;;494037;241;27502;-73